Time;durP1;ratioP1;P1;durP2;ratioP2;P2;SDS_P1;SDS_P2;PMS_P1;PMS_P2;Temp;Humidity;BMP_temperature;BMP_pressure;BME280_temperature;BME280_humidity;BME280_pressure;Samples;Min_cycle;Max_cycle;Signal;HPM_P1;HPM_P2
2023/12/17 00:02:15;;;;;;;32.08;17.55;;;;;;;6.90;100.00;102511.19;10437979;28;20041;-80
2023/12/17 00:07:18;;;;;;;29.33;16.38;;;;;;;7.00;100.00;102509.09;10433142;28;20744;-81
2023/12/17 00:12:22;;;;;;;28.25;16.15;;;;;;;6.89;100.00;102489.88;10416814;28;20052;-81
2023/12/17 00:17:25;;;;;;;33.85;19.23;;;;;;;6.92;100.00;102511.16;10461981;28;20055;-80
2023/12/17 00:22:28;;;;;;;32.65;17.17;;;;;;;6.99;100.00;102515.34;10454114;28;20051;-81
2023/12/17 00:27:33;;;;;;;20.42;11.02;;;;;;;6.61;100.00;102525.44;10448246;28;20044;-81
2023/12/17 00:32:36;;;;;;;43.45;18.92;;;;;;;6.77;100.00;102516.00;10428859;28;21488;-81
2023/12/17 00:37:39;;;;;;;37.90;20.77;;;;;;;6.94;100.00;102528.88;10430777;28;20342;-81
2023/12/17 00:42:44;;;;;;;38.40;21.60;;;;;;;6.76;100.00;102510.72;10452125;28;20056;-80
2023/12/17 00:47:47;;;;;;;35.90;22.10;;;;;;;6.71;100.00;102513.53;10442727;28;20048;-82
2023/12/17 00:52:51;;;;;;;41.28;23.45;;;;;;;7.15;100.00;102511.25;10466497;28;20056;-82
2023/12/17 00:57:55;;;;;;;40.17;22.35;;;;;;;6.86;100.00;102525.53;10423721;28;20048;-82
2023/12/17 01:02:58;;;;;;;39.78;21.98;;;;;;;7.15;100.00;102527.31;10435036;28;20056;-82
2023/12/17 01:08:01;;;;;;;41.38;22.38;;;;;;;7.05;100.00;102525.88;10435637;28;20705;-80
2023/12/17 01:13:06;;;;;;;38.38;20.38;;;;;;;7.15;100.00;102521.09;10444961;28;20059;-81
2023/12/17 01:18:10;;;;;;;39.15;22.45;;;;;;;7.05;100.00;102542.78;10442739;28;20052;-81
2023/12/17 01:23:13;;;;;;;34.47;20.55;;;;;;;6.82;100.00;102527.41;10457333;28;20056;-81
2023/12/17 01:28:18;;;;;;;30.23;16.35;;;;;;;6.98;100.00;102526.97;10434458;28;20194;-81
2023/12/17 01:33:21;;;;;;;33.35;19.15;;;;;;;7.00;100.00;102526.00;10456263;28;20048;-82
2023/12/17 01:38:24;;;;;;;35.35;19.35;;;;;;;7.03;100.00;102538.41;10454581;28;20053;-81
2023/12/17 01:43:28;;;;;;;35.92;20.48;;;;;;;7.18;100.00;102531.69;10452713;28;20181;-81
2023/12/17 01:48:32;;;;;;;33.45;19.25;;;;;;;7.17;100.00;102529.94;10433924;28;20052;-80
2023/12/17 01:53:35;;;;;;;27.55;14.38;;;;;;;6.87;100.00;102521.06;10453224;28;21179;-80
2023/12/17 01:58:40;;;;;;;36.50;19.83;;;;;;;7.18;100.00;102524.53;10447235;28;20048;-82
2023/12/17 02:03:44;;;;;;;34.40;21.15;;;;;;;7.33;100.00;102515.13;10426426;28;20090;-80
2023/12/17 02:08:47;;;;;;;32.55;18.70;;;;;;;7.02;100.00;102508.13;10440144;28;20049;-81
2023/12/17 02:13:51;;;;;;;36.13;19.40;;;;;;;7.32;100.00;102518.72;10418156;28;20051;-80
2023/12/17 02:18:57;;;;;;;32.28;16.27;;;;;;;7.14;100.00;102505.97;10445403;28;20044;-80
2023/12/17 02:24:02;;;;;;;27.05;15.95;;;;;;;6.92;100.00;102487.09;10416892;28;20053;-81
2023/12/17 02:29:08;;;;;;;35.78;18.73;;;;;;;7.08;100.00;102492.81;10429132;28;20048;-80
2023/12/17 02:34:13;;;;;;;34.85;19.02;;;;;;;7.17;100.00;102509.41;10431448;28;20127;-80
2023/12/17 02:39:17;;;;;;;23.17;13.05;;;;;;;7.04;100.00;102502.72;10438323;28;20855;-80
2023/12/17 02:44:20;;;;;;;35.55;20.08;;;;;;;7.13;100.00;102501.53;10435848;28;20063;-80
2023/12/17 02:49:23;;;;;;;22.13;13.15;;;;;;;6.86;100.00;102488.16;10445266;28;20064;-81
2023/12/17 02:54:29;;;;;;;32.42;17.58;;;;;;;7.10;100.00;102490.97;10451836;28;20045;-80
2023/12/17 02:59:32;;;;;;;27.98;14.73;;;;;;;7.24;100.00;102489.59;10433455;28;20045;-81
2023/12/17 03:04:35;;;;;;;27.48;16.05;;;;;;;7.12;100.00;102491.78;10438955;28;20048;-81
2023/12/17 03:09:39;;;;;;;22.30;13.77;;;;;;;7.03;100.00;102493.84;10439881;28;20049;-81
2023/12/17 03:14:42;;;;;;;27.10;14.88;;;;;;;7.24;100.00;102464.63;10433889;28;20048;-82
2023/12/17 03:19:45;;;;;;;30.17;18.20;;;;;;;7.24;100.00;102473.56;10454819;28;21204;-81
2023/12/17 03:24:50;;;;;;;32.88;17.90;;;;;;;7.44;100.00;102458.63;10454495;28;20140;-80
2023/12/17 03:29:54;;;;;;;29.88;17.52;;;;;;;7.35;100.00;102456.25;10439983;28;21465;-81
2023/12/17 03:34:57;;;;;;;29.52;17.17;;;;;;;7.18;100.00;102459.50;10432044;28;20063;-80
2023/12/17 03:40:01;;;;;;;22.17;12.50;;;;;;;7.10;100.00;102458.88;10426575;28;20080;-82
2023/12/17 03:45:05;;;;;;;26.45;16.50;;;;;;;7.30;100.00;102458.22;10435021;28;20056;-80
2023/12/17 03:50:08;;;;;;;29.90;18.15;;;;;;;7.30;100.00;102444.84;10444380;28;20148;-80
2023/12/17 03:55:13;;;;;;;27.73;17.83;;;;;;;7.54;100.00;102443.09;10465813;28;20045;-80
2023/12/17 04:00:16;;;;;;;26.23;15.77;;;;;;;7.40;100.00;102441.78;10463308;28;20439;-80
2023/12/17 04:05:19;;;;;;;26.83;17.10;;;;;;;7.25;100.00;102428.97;10451686;28;20045;-81
2023/12/17 04:10:24;;;;;;;24.13;16.05;;;;;;;7.27;100.00;102427.13;10457328;28;20051;-82
2023/12/17 04:15:27;;;;;;;24.70;14.73;;;;;;;7.41;100.00;102430.19;10457656;28;21481;-81
2023/12/17 04:20:30;;;;;;;24.90;14.88;;;;;;;7.00;100.00;102423.59;10448172;28;20041;-81
2023/12/17 04:25:34;;;;;;;27.48;17.13;;;;;;;7.11;100.00;102432.13;10432099;28;20056;-81
2023/12/17 04:30:37;;;;;;;21.60;12.32;;;;;;;7.08;100.00;102426.88;10455663;28;20056;-80
2023/12/17 04:35:40;;;;;;;22.70;13.98;;;;;;;7.28;100.00;102415.50;10453605;28;20754;-81
2023/12/17 04:40:45;;;;;;;20.52;12.68;;;;;;;7.14;100.00;102423.13;10458420;28;20044;-81
2023/12/17 04:45:48;;;;;;;25.77;15.65;;;;;;;7.19;100.00;102435.41;10447766;28;20120;-80
2023/12/17 04:50:51;;;;;;;29.80;15.05;;;;;;;7.03;100.00;102423.47;10433762;28;21205;-81
2023/12/17 04:55:55;;;;;;;27.85;15.48;;;;;;;7.42;100.00;102417.69;10450364;28;20179;-82
2023/12/17 05:00:59;;;;;;;18.70;10.43;;;;;;;7.03;100.00;102416.34;10421651;28;20056;-81
2023/12/17 05:06:02;;;;;;;25.08;14.65;;;;;;;7.35;100.00;102413.47;10446819;28;20531;-80
2023/12/17 05:11:07;;;;;;;28.13;18.30;;;;;;;7.23;100.00;102423.66;10464268;28;20068;-82
2023/12/17 05:16:10;;;;;;;27.75;17.35;;;;;;;7.22;100.00;102429.06;10451254;28;20053;-81
2023/12/17 05:21:13;;;;;;;29.92;17.58;;;;;;;7.24;100.00;102414.72;10456074;28;20044;-81
2023/12/17 05:26:17;;;;;;;32.65;17.48;;;;;;;7.18;100.00;102414.91;10422578;28;20104;-82
2023/12/17 05:31:20;;;;;;;27.10;15.30;;;;;;;7.19;100.00;102416.69;10446898;28;20045;-81
2023/12/17 05:36:23;;;;;;;17.52;10.68;;;;;;;7.03;100.00;102419.00;10449086;28;20053;-82
2023/12/17 05:41:28;;;;;;;30.17;17.30;;;;;;;7.31;100.00;102420.72;10448607;28;20120;-82
2023/12/17 05:46:31;;;;;;;16.52;9.40;;;;;;;7.22;100.00;102411.22;10452715;28;20926;-80
2023/12/17 05:51:34;;;;;;;24.58;15.00;;;;;;;7.37;100.00;102411.63;10441224;28;20044;-82
2023/12/17 05:56:43;;;;;;;28.13;15.52;;;;;;;7.20;100.00;102406.88;10447284;28;20519;-80
2023/12/17 06:01:46;;;;;;;27.55;17.35;;;;;;;7.38;100.00;102434.78;10442629;28;20040;-82
2023/12/17 06:06:49;;;;;;;24.88;15.60;;;;;;;7.22;100.00;102431.75;10450135;28;20053;-82
2023/12/17 06:11:55;;;;;;;30.35;17.33;;;;;;;7.21;100.00;102427.31;10437600;28;20048;-82
2023/12/17 06:16:58;;;;;;;21.50;13.80;;;;;;;7.37;100.00;102428.53;10438932;28;20048;-82
2023/12/17 06:22:02;;;;;;;26.20;16.02;;;;;;;7.33;100.00;102434.06;10438010;28;20059;-82
2023/12/17 06:27:07;;;;;;;29.15;17.00;;;;;;;7.49;100.00;102451.31;10424306;28;20504;-82
2023/12/17 06:32:12;;;;;;;22.55;15.25;;;;;;;7.39;100.00;102457.91;10444310;28;20056;-80
2023/12/17 06:37:15;;;;;;;25.90;13.02;;;;;;;7.22;100.00;102432.63;10432105;28;20036;-82
2023/12/17 06:42:20;;;;;;;24.80;16.35;;;;;;;7.22;100.00;102429.06;10442241;28;20049;-82
2023/12/17 06:47:23;;;;;;;25.52;16.55;;;;;;;7.44;100.00;102426.53;10444508;28;20261;-82
2023/12/17 06:52:30;;;;;;;23.63;13.10;;;;;;;7.20;100.00;102453.19;10431975;28;20122;-82
2023/12/17 06:57:35;;;;;;;26.13;15.85;;;;;;;7.50;100.00;102437.88;10446347;28;20056;-82
2023/12/17 07:02:38;;;;;;;26.55;15.60;;;;;;;7.30;100.00;102443.06;10442056;28;20053;-82
2023/12/17 07:07:43;;;;;;;21.17;12.77;;;;;;;7.32;100.00;102442.97;10460241;28;20110;-82
2023/12/17 07:12:47;;;;;;;17.85;10.27;;;;;;;7.12;100.00;102451.69;10438731;28;20048;-82
2023/12/17 07:17:51;;;;;;;20.80;11.10;;;;;;;6.93;100.00;102462.13;10441002;28;20060;-80
2023/12/17 07:22:54;;;;;;;19.40;9.85;;;;;;;7.18;100.00;102447.00;10441772;28;20389;-81
2023/12/17 07:27:58;;;;;;;20.48;11.15;;;;;;;7.17;100.00;102453.28;10441260;28;20056;-81
2023/12/17 07:33:01;;;;;;;25.67;14.30;;;;;;;7.34;100.00;102438.47;10444608;28;20167;-79
2023/12/17 07:38:04;;;;;;;26.70;16.38;;;;;;;7.27;100.00;102440.50;10458506;28;20048;-81
2023/12/17 07:43:09;;;;;;;25.08;14.02;;;;;;;7.23;100.00;102450.41;10454899;28;20044;-81
2023/12/17 07:48:12;;;;;;;25.58;15.00;;;;;;;7.33;100.00;102452.78;10443453;28;20132;-81
2023/12/17 07:53:15;;;;;;;23.95;13.18;;;;;;;6.97;100.00;102445.06;10425444;28;20044;-80
2023/12/17 07:58:20;;;;;;;23.38;11.77;;;;;;;7.10;100.00;102438.38;10434190;28;20515;-83
2023/12/17 08:03:24;;;;;;;27.45;16.00;;;;;;;6.91;100.00;102438.13;10448820;28;20068;-81
2023/12/17 08:08:27;;;;;;;27.25;14.43;;;;;;;7.14;100.00;102433.81;10443647;28;20062;-82
2023/12/17 08:13:31;;;;;;;31.48;15.32;;;;;;;7.00;100.00;102427.13;10454281;28;20064;-81
2023/12/17 08:18:34;;;;;;;28.27;14.63;;;;;;;7.40;100.00;102451.63;10458617;28;20195;-82
2023/12/17 08:23:37;;;;;;;26.98;15.50;;;;;;;7.08;100.00;102445.59;10435716;28;20240;-82
2023/12/17 08:28:46;;;;;;;32.58;16.77;;;;;;;7.11;100.00;102442.81;10426479;28;20054;-82
2023/12/17 08:33:52;;;;;;;30.05;17.42;;;;;;;7.22;100.00;102451.34;10444188;28;20045;-83
2023/12/17 08:38:56;;;;;;;24.52;13.23;;;;;;;7.36;100.00;102452.66;10449071;28;20055;-82
2023/12/17 08:44:00;;;;;;;28.75;15.40;;;;;;;7.29;100.00;102457.31;10425426;28;20052;-81
2023/12/17 08:49:04;;;;;;;22.80;14.05;;;;;;;7.34;100.00;102452.69;10454869;28;20068;-81
2023/12/17 08:54:10;;;;;;;24.45;12.77;;;;;;;7.09;100.00;102455.34;10439141;28;20045;-82
2023/12/17 08:59:14;;;;;;;25.98;13.80;;;;;;;7.23;100.00;102442.38;10438641;28;20048;-80
2023/12/17 09:04:17;;;;;;;23.83;12.95;;;;;;;7.19;100.00;102431.88;10438174;28;20044;-80
2023/12/17 09:09:20;;;;;;;23.75;12.18;;;;;;;6.72;100.00;102445.84;10447870;28;20068;-81
2023/12/17 09:14:25;;;;;;;21.42;10.35;;;;;;;6.87;100.00;102436.47;10453540;28;20056;-79
2023/12/17 09:19:28;;;;;;;19.73;9.88;;;;;;;6.88;100.00;102450.69;10392675;28;20059;-81
2023/12/17 09:24:31;;;;;;;16.25;10.32;;;;;;;6.53;100.00;102445.56;10485567;28;20052;-79
2023/12/17 09:29:35;;;;;;;20.52;11.15;;;;;;;6.69;100.00;102437.03;10478625;28;20518;-81
2023/12/17 09:34:38;;;;;;;21.73;13.02;;;;;;;7.04;100.00;102449.28;10457691;28;20051;-80
2023/12/17 09:39:41;;;;;;;25.20;13.00;;;;;;;7.32;99.04;102435.84;10423354;28;20443;-80
2023/12/17 09:44:46;;;;;;;18.70;10.73;;;;;;;6.83;100.00;102435.69;10431874;28;20049;-80
2023/12/17 09:49:49;;;;;;;17.58;10.50;;;;;;;6.92;99.26;102434.53;10447748;28;20045;-79
2023/12/17 09:54:52;;;;;;;23.60;13.80;;;;;;;7.32;97.11;102427.81;10442733;28;20060;-83
2023/12/17 09:59:56;;;;;;;18.58;10.88;;;;;;;7.02;97.33;102422.63;10425525;28;20709;-83
2023/12/17 10:04:59;;;;;;;18.35;11.43;;;;;;;7.34;93.84;102433.13;10424840;28;20064;-84
2023/12/17 10:10:03;;;;;;;15.52;9.48;;;;;;;7.22;94.05;102434.44;10423994;28;20053;-82
2023/12/17 10:15:10;;;;;;;18.30;11.45;;;;;;;7.28;94.56;102413.69;10440759;28;20147;-84
2023/12/17 10:20:18;;;;;;;16.52;9.75;;;;;;;7.36;94.01;102404.53;10427293;28;20048;-81
2023/12/17 10:25:23;;;;;;;13.10;8.15;;;;;;;6.96;95.06;102396.06;10450814;28;20052;-81
2023/12/17 10:30:33;;;;;;;12.82;9.23;;;;;;;6.90;95.91;102387.41;10479935;28;20075;-81
2023/12/17 10:35:37;;;;;;;17.48;11.45;;;;;;;7.38;94.07;102392.84;10454967;28;20100;-82
2023/12/17 10:40:41;;;;;;;13.52;9.13;;;;;;;7.20;95.54;102388.16;10465200;28;20108;-84
2023/12/17 10:45:48;;;;;;;10.65;7.47;;;;;;;6.73;96.49;102395.97;10458984;28;20447;-87
2023/12/17 10:50:52;;;;;;;14.38;9.68;;;;;;;7.37;93.63;102385.75;10454085;28;20060;-80
2023/12/17 10:55:56;;;;;;;11.23;7.90;;;;;;;7.40;92.75;102384.75;10446000;28;20172;-80
2023/12/17 11:01:00;;;;;;;9.02;6.70;;;;;;;6.81;95.84;102381.41;10463251;28;20059;-79
2023/12/17 11:06:04;;;;;;;10.18;8.73;;;;;;;7.05;93.89;102392.25;10469589;28;20049;-82
2023/12/17 11:11:07;;;;;;;6.22;5.45;;;;;;;6.55;95.96;102400.94;10436974;28;20068;-80
2023/12/17 11:16:25;;;;;;;9.85;6.72;;;;;;;6.74;92.96;102376.31;10429657;28;21119;-79
2023/12/17 11:21:29;;;;;;;8.55;5.82;;;;;;;6.97;92.27;102379.13;10441156;28;20658;-79
2023/12/17 11:26:40;;;;;;;7.45;6.25;;;;;;;7.20;92.09;102372.13;10437880;28;20061;-83
2023/12/17 11:31:45;;;;;;;7.75;6.82;;;;;;;7.04;93.47;102374.44;10442673;28;20060;-82
2023/12/17 11:36:49;;;;;;;8.77;6.60;;;;;;;6.81;94.60;102373.41;10452655;28;20049;-82
2023/12/17 11:41:52;;;;;;;4.97;4.47;;;;;;;6.47;94.66;102376.28;10433408;28;20052;-80
2023/12/17 11:46:56;;;;;;;5.30;4.80;;;;;;;6.40;93.64;102372.09;10421215;28;20069;-82
2023/12/17 11:52:11;;;;;;;6.80;5.88;;;;;;;6.54;92.93;102343.13;10452428;28;20245;-83
2023/12/17 11:57:21;;;;;;;5.20;4.63;;;;;;;6.39;93.82;102349.00;10449505;28;20050;-82
2023/12/17 12:02:27;;;;;;;6.50;5.78;;;;;;;6.91;91.18;102338.38;10429487;28;20102;-81
2023/12/17 12:07:30;;;;;;;5.78;5.10;;;;;;;6.86;90.71;102317.16;10444366;28;20055;-82
2023/12/17 12:12:34;;;;;;;9.50;7.07;;;;;;;7.08;91.09;102324.44;10448113;28;20041;-81
2023/12/17 12:17:40;;;;;;;8.52;7.63;;;;;;;7.10;90.61;102317.22;10439036;28;20059;-79
2023/12/17 12:22:45;;;;;;;9.07;7.80;;;;;;;7.66;88.16;102298.22;10432221;28;20054;-79
2023/12/17 12:27:52;;;;;;;10.10;7.47;;;;;;;8.09;85.58;102291.16;10427278;28;20053;-79
2023/12/17 12:32:57;;;;;;;8.00;6.80;;;;;;;7.20;88.75;102290.13;10442138;28;20059;-82
2023/12/17 12:38:00;;;;;;;9.27;7.85;;;;;;;6.74;93.18;102298.84;10440606;28;20053;-80
2023/12/17 12:43:03;;;;;;;6.60;5.18;;;;;;;6.56;93.61;102308.38;10449170;28;20404;-81
2023/12/17 12:48:16;;;;;;;7.57;6.00;;;;;;;6.30;95.00;102294.09;10432343;28;20055;-81
2023/12/17 12:53:21;;;;;;;10.50;8.25;;;;;;;6.48;94.79;102319.31;10437211;28;20045;-80
2023/12/17 12:58:30;;;;;;;13.77;7.93;;;;;;;6.47;93.88;102301.53;10435276;28;20520;-81
2023/12/17 13:03:35;;;;;;;10.13;6.82;;;;;;;6.29;93.94;102300.34;10422829;28;20045;-82
2023/12/17 13:08:38;;;;;;;10.32;7.47;;;;;;;6.93;90.73;102296.44;10434523;28;20052;-79
2023/12/17 13:13:41;;;;;;;13.27;8.00;;;;;;;6.42;93.72;102287.50;10442941;28;20036;-81
2023/12/17 13:18:45;;;;;;;9.10;6.13;;;;;;;6.24;95.91;102277.41;10437443;28;20120;-80
2023/12/17 13:23:57;;;;;;;13.02;8.25;;;;;;;6.80;92.71;102267.47;10445692;28;20048;-80
2023/12/17 13:28:59;;;;;;;14.82;7.63;;;;;;;6.64;92.06;102258.25;10452516;28;20048;-79
2023/12/17 13:34:04;;;;;;;12.48;7.15;;;;;;;6.77;92.67;102264.88;10441603;28;20052;-80
2023/12/17 13:39:07;;;;;;;15.85;10.20;;;;;;;7.14;90.19;102244.91;10436095;28;20052;-81
2023/12/17 13:44:10;;;;;;;16.10;9.50;;;;;;;7.13;91.41;102242.28;10440115;28;20587;-83
2023/12/17 13:49:23;;;;;;;11.82;6.75;;;;;;;7.26;90.01;102255.13;10424260;28;20055;-84
2023/12/17 13:54:26;;;;;;;15.25;9.55;;;;;;;7.09;91.77;102244.19;10437771;28;20045;-84
2023/12/17 13:59:31;;;;;;;16.80;10.60;;;;;;;6.81;94.16;102250.50;10423053;28;20049;-85
2023/12/17 14:04:36;;;;;;;12.80;7.32;;;;;;;7.20;90.94;102242.00;10430149;28;20052;-85
2023/12/17 14:09:39;;;;;;;20.83;12.60;;;;;;;7.48;89.40;102225.75;10417113;28;20051;-84
2023/12/17 14:14:43;;;;;;;21.55;12.95;;;;;;;6.90;93.41;102230.63;10437853;28;20049;-84
2023/12/17 14:19:48;;;;;;;24.95;12.27;;;;;;;7.28;91.26;102226.53;10408128;28;21345;-85
2023/12/17 14:24:51;;;;;;;19.48;12.43;;;;;;;7.06;92.80;102230.94;10421014;28;20079;-85
2023/12/17 14:29:54;;;;;;;22.55;13.23;;;;;;;6.98;93.59;102220.53;10427836;28;20048;-83
2023/12/17 14:34:59;;;;;;;24.40;14.32;;;;;;;7.07;92.87;102222.00;10444905;28;20053;-83
2023/12/17 14:40:02;;;;;;;26.42;15.70;;;;;;;6.84;94.40;102222.81;10468008;28;20367;-84
2023/12/17 14:45:35;;;;;;;26.48;14.20;;;;;;;7.02;93.38;102222.19;10444546;28;20054;-83
2023/12/17 14:50:40;;;;;;;28.70;17.98;;;;;;;6.95;94.00;102220.66;10493446;28;20064;-84
2023/12/17 14:55:43;;;;;;;29.65;17.52;;;;;;;7.09;92.86;102211.25;10468689;28;20063;-85
2023/12/17 15:00:48;;;;;;;38.38;19.42;;;;;;;6.90;94.16;102216.41;10472972;28;20059;-85
2023/12/17 15:05:52;;;;;;;32.65;17.95;;;;;;;6.54;95.97;102219.44;10454630;28;20473;-83
2023/12/17 15:10:56;;;;;;;34.20;22.23;;;;;;;6.70;94.77;102211.75;10421667;28;20109;-82
2023/12/17 15:16:00;;;;;;;35.42;20.92;;;;;;;6.46;96.86;102213.50;10438129;28;20048;-82
2023/12/17 15:21:05;;;;;;;37.22;20.45;;;;;;;6.48;96.66;102222.31;10457012;28;20052;-82
2023/12/17 15:26:09;;;;;;;36.28;20.25;;;;;;;6.76;94.39;102225.75;10452038;28;20049;-84
2023/12/17 15:31:15;;;;;;;24.27;12.90;;;;;;;6.12;96.94;102231.53;10430061;28;20049;-82
2023/12/17 15:36:21;;;;;;;25.52;13.27;;;;;;;5.79;100.00;102228.16;10444338;28;20041;-84
2023/12/17 15:41:24;;;;;;;32.10;19.42;;;;;;;6.03;99.39;102205.13;10442267;28;20052;-83
2023/12/17 15:46:28;;;;;;;34.28;20.00;;;;;;;5.68;100.00;102209.81;10452311;28;20049;-82
2023/12/17 15:51:33;;;;;;;28.95;17.05;;;;;;;5.53;100.00;102202.28;10408240;28;20512;-84
2023/12/17 15:56:36;;;;;;;39.50;22.40;;;;;;;5.77;100.00;102194.47;10415740;28;20056;-80
2023/12/17 16:01:39;;;;;;;38.60;21.20;;;;;;;5.88;99.95;102186.97;10438564;28;20056;-80
2023/12/17 16:06:43;;;;;;;34.65;20.92;;;;;;;5.77;99.88;102187.31;10457385;28;20053;-80
2023/12/17 16:11:46;;;;;;;37.20;22.38;;;;;;;5.90;100.00;102194.00;10436576;28;20105;-79
2023/12/17 16:16:50;;;;;;;39.78;23.27;;;;;;;5.84;100.00;102188.88;10449323;28;20194;-80
2023/12/17 16:21:57;;;;;;;38.42;21.65;;;;;;;5.83;99.92;102188.91;10430957;28;20716;-79
2023/12/17 16:27:00;;;;;;;40.10;19.05;;;;;;;5.48;100.00;102188.22;10427264;28;20059;-79
2023/12/17 16:32:03;;;;;;;30.20;17.08;;;;;;;5.39;100.00;102185.88;10438863;28;20055;-82
2023/12/17 16:37:07;;;;;;;39.85;21.30;;;;;;;5.14;100.00;102193.72;10425465;28;21185;-82
2023/12/17 16:42:10;;;;;;;33.03;19.25;;;;;;;5.08;100.00;102193.91;10451385;28;20045;-77
2023/12/17 16:47:13;;;;;;;32.30;16.35;;;;;;;5.47;100.00;102194.50;10438890;28;20135;-82
2023/12/17 16:52:18;;;;;;;33.35;18.38;;;;;;;5.23;100.00;102201.44;10430947;28;20060;-79
2023/12/17 16:57:21;;;;;;;28.77;13.95;;;;;;;5.12;100.00;102203.53;10412562;28;20040;-81
2023/12/17 17:02:24;;;;;;;34.05;17.27;;;;;;;5.23;100.00;102198.78;10463820;28;20071;-79
2023/12/17 17:07:28;;;;;;;39.45;20.95;;;;;;;5.05;100.00;102206.41;10448683;28;20908;-81
2023/12/17 17:12:31;;;;;;;34.25;16.45;;;;;;;5.02;100.00;102209.16;10423432;28;20053;-81
2023/12/17 17:17:35;;;;;;;42.72;20.08;;;;;;;5.01;100.00;102202.06;10433332;28;20601;-81
2023/12/17 17:22:39;;;;;;;33.22;16.95;;;;;;;4.95;100.00;102199.53;10409154;28;20056;-80
2023/12/17 17:27:43;;;;;;;39.92;21.83;;;;;;;5.24;100.00;102192.53;10442948;28;21243;-79
2023/12/17 17:32:46;;;;;;;40.63;22.75;;;;;;;5.09;100.00;102171.66;10449217;28;21556;-79
2023/12/17 17:37:50;;;;;;;37.85;18.83;;;;;;;5.25;100.00;102181.81;10424552;28;20058;-80
2023/12/17 17:42:54;;;;;;;36.30;20.80;;;;;;;5.21;100.00;102158.88;10444577;28;20044;-80
2023/12/17 17:47:57;;;;;;;37.40;18.55;;;;;;;5.23;100.00;102162.34;10421351;28;20053;-80
2023/12/17 17:53:02;;;;;;;46.70;20.17;;;;;;;5.42;100.00;102172.44;10451360;28;20534;-80
2023/12/17 17:58:05;;;;;;;35.08;19.48;;;;;;;5.55;100.00;102168.47;10449112;28;20051;-78
2023/12/17 18:03:09;;;;;;;35.80;17.15;;;;;;;5.49;100.00;102161.53;10436166;28;20048;-79
2023/12/17 18:08:14;;;;;;;34.53;17.63;;;;;;;5.63;100.00;102161.09;10421511;28;20063;-79
2023/12/17 18:13:17;;;;;;;33.30;17.85;;;;;;;5.80;99.26;102165.88;10422115;28;20052;-79
2023/12/17 18:18:20;;;;;;;34.70;17.58;;;;;;;5.93;99.33;102158.34;10430925;28;20123;-78
2023/12/17 18:23:25;;;;;;;35.53;16.13;;;;;;;5.69;100.00;102157.38;10422644;28;20037;-78
2023/12/17 18:28:32;;;;;;;29.67;15.48;;;;;;;5.98;98.93;102156.41;10420472;28;20049;-78
2023/12/17 18:33:35;;;;;;;29.33;14.85;;;;;;;5.91;99.54;102154.84;10431682;28;20049;-79
2023/12/17 18:38:44;;;;;;;26.30;13.85;;;;;;;5.98;99.39;102148.41;10427780;28;20053;-79
2023/12/17 18:43:48;;;;;;;29.02;15.13;;;;;;;6.03;99.51;102130.41;10429175;28;20661;-79
2023/12/17 18:48:51;;;;;;;23.85;12.65;;;;;;;5.99;100.00;102118.13;10446455;28;20048;-79
2023/12/17 18:53:56;;;;;;;27.42;13.25;;;;;;;6.08;100.00;102124.94;10453218;28;20638;-80
2023/12/17 18:58:59;;;;;;;21.17;13.23;;;;;;;6.21;99.13;102125.41;10460870;28;20052;-79
2023/12/17 19:04:02;;;;;;;18.92;10.57;;;;;;;5.99;100.00;102135.94;10444568;28;20056;-79
2023/12/17 19:09:08;;;;;;;24.27;11.63;;;;;;;6.45;96.40;102121.84;10441072;28;20057;-79
2023/12/17 19:14:12;;;;;;;17.17;10.55;;;;;;;6.40;97.40;102126.47;10458254;28;20049;-80
2023/12/17 19:19:15;;;;;;;18.20;10.02;;;;;;;6.17;99.36;102117.50;10449227;28;20053;-80
2023/12/17 19:24:19;;;;;;;17.27;10.20;;;;;;;6.28;98.35;102118.88;10460580;28;20057;-78
2023/12/17 19:29:22;;;;;;;21.42;11.75;;;;;;;6.22;100.00;102117.31;10439591;28;20072;-80
2023/12/17 19:34:25;;;;;;;14.32;7.88;;;;;;;6.25;99.12;102116.34;10450535;28;20049;-78
2023/12/17 19:39:30;;;;;;;23.27;10.80;;;;;;;6.33;98.18;102124.94;10455661;28;20048;-80
2023/12/17 19:44:33;;;;;;;19.15;9.95;;;;;;;6.28;98.00;102133.13;10456308;28;20053;-81
2023/12/17 19:49:36;;;;;;;18.85;10.13;;;;;;;6.18;99.21;102129.03;10450427;28;20055;-80
2023/12/17 19:54:40;;;;;;;25.13;11.88;;;;;;;6.31;97.43;102119.69;10468967;28;20051;-80
2023/12/17 19:59:43;;;;;;;14.38;8.13;;;;;;;6.20;97.77;102120.97;10419911;28;20076;-79
2023/12/17 20:04:48;;;;;;;14.60;8.35;;;;;;;6.10;99.39;102125.75;10444450;28;20041;-79
2023/12/17 20:09:52;;;;;;;18.45;8.70;;;;;;;6.34;97.29;102114.22;10442224;28;20061;-79
2023/12/17 20:14:58;;;;;;;16.38;8.15;;;;;;;6.15;98.86;102114.00;10427551;28;20112;-76
2023/12/17 20:20:01;;;;;;;16.27;8.48;;;;;;;6.09;99.77;102116.91;10441659;28;20048;-80
2023/12/17 20:25:07;;;;;;;9.60;6.18;;;;;;;6.09;99.69;102092.00;10438806;28;20064;-77
2023/12/17 20:30:10;;;;;;;17.17;8.57;;;;;;;6.49;96.65;102090.56;10431087;28;20769;-79
2023/12/17 20:35:14;;;;;;;14.68;8.68;;;;;;;6.53;96.93;102089.53;10442211;28;20137;-79
2023/12/17 20:40:19;;;;;;;16.52;7.72;;;;;;;6.51;96.79;102091.38;10446032;28;20048;-78
2023/12/17 20:45:22;;;;;;;15.60;8.13;;;;;;;6.58;96.43;102083.09;10456227;28;20041;-82
2023/12/17 20:50:25;;;;;;;12.43;7.57;;;;;;;6.61;95.63;102085.66;10440222;28;20090;-82
2023/12/17 20:55:30;;;;;;;16.20;8.55;;;;;;;6.46;96.75;102088.88;10449851;28;20709;-80
2023/12/17 21:00:33;;;;;;;17.45;8.48;;;;;;;6.59;96.75;102067.94;10438119;28;20456;-78
2023/12/17 21:05:36;;;;;;;11.55;7.70;;;;;;;6.66;96.63;102069.44;10441792;28;20137;-82
2023/12/17 21:10:41;;;;;;;13.82;7.63;;;;;;;6.78;94.83;102078.81;10430578;28;20044;-80
2023/12/17 21:15:44;;;;;;;16.02;7.50;;;;;;;6.89;94.00;102071.28;10396452;28;20048;-79
2023/12/17 21:20:47;;;;;;;12.10;6.82;;;;;;;6.81;94.60;102089.38;10406012;28;20051;-80
2023/12/17 21:25:51;;;;;;;16.98;8.15;;;;;;;6.98;93.08;102083.41;10447195;28;20049;-81
2023/12/17 21:30:55;;;;;;;12.95;7.05;;;;;;;6.99;92.84;102085.13;10454813;28;21303;-80
2023/12/17 21:35:58;;;;;;;14.25;7.20;;;;;;;6.92;93.24;102087.19;10441206;28;20118;-80
2023/12/17 21:41:02;;;;;;;13.23;7.45;;;;;;;6.92;93.55;102089.00;10421056;28;20053;-81
2023/12/17 21:46:05;;;;;;;15.63;7.53;;;;;;;6.88;94.24;102082.00;10416436;28;20056;-78
2023/12/17 21:51:09;;;;;;;12.02;7.35;;;;;;;6.88;94.12;102084.69;10411495;28;20632;-81
2023/12/17 21:56:13;;;;;;;15.98;7.80;;;;;;;6.79;94.78;102080.53;10425079;28;20599;-80
2023/12/17 22:01:16;;;;;;;11.95;6.85;;;;;;;6.74;95.50;102082.50;10426533;28;20052;-79
2023/12/17 22:06:20;;;;;;;11.48;6.53;;;;;;;6.95;93.25;102067.50;10439975;28;20048;-81
2023/12/17 22:11:24;;;;;;;12.63;7.88;;;;;;;6.85;93.79;102066.94;10427357;28;20056;-79
2023/12/17 22:16:27;;;;;;;15.98;7.43;;;;;;;6.48;96.95;102068.34;10451012;28;20079;-79
2023/12/17 22:21:30;;;;;;;12.15;8.18;;;;;;;6.89;94.29;102081.09;10437543;28;21133;-79
2023/12/17 22:26:35;;;;;;;10.25;6.95;;;;;;;6.72;95.81;102074.56;10437997;28;20048;-79
2023/12/17 22:31:38;;;;;;;12.35;6.63;;;;;;;6.66;96.62;102065.91;10450644;28;20864;-79
2023/12/17 22:36:41;;;;;;;13.65;5.40;;;;;;;6.36;99.78;102050.09;10430789;28;20384;-82
2023/12/17 22:41:45;;;;;;;10.80;6.53;;;;;;;6.29;100.00;102043.25;10429182;28;20040;-81
2023/12/17 22:46:49;;;;;;;8.38;5.28;;;;;;;6.59;97.79;102042.09;10414716;28;20509;-80
2023/12/17 22:51:54;;;;;;;9.77;5.82;;;;;;;6.55;98.22;102047.59;10430563;28;20056;-81
2023/12/17 22:56:58;;;;;;;9.45;4.72;;;;;;;6.63;97.95;102037.50;10418855;28;20045;-80
2023/12/17 23:02:03;;;;;;;5.70;3.95;;;;;;;6.48;98.00;102036.28;10430331;28;20130;-80